Watts, Oklahoma
Current Conditions -  °F | °C
As of 7:35 AM on Saturday 20 Dec 2014 (Local Time) from KSLG Reporting Station
Overcast Overcast  
Wind Chill: 39°   Ceiling: 200
Heat Index: 39°   Visibility: 0mi
Dew Point: 34°   Wind: 0mph
Humidity: 81%   Direction: NA
Pressure: 30.24"   Gusts: NA
Location:  36.11°N, 94.57°W
Report Text: KSLG 201335Z AUTO 00000KT M1/4SM OVC002 04/01 A3024 RMK AO1
Loading
Personal Weather Stations






























Interactive Weather Map New forecast layout! Learn more

10-Day Weather Forecast

Advertisements
Track Severe Weather on mobile